Tuesday, April 24, 2018, 4:40 AM EDT
Back to Local

K40B, Clayton Lake

Location: Ashland, ME, United States Lat: 46.617
Local Time: 4:40 AM EDT ( 8:40 GMT) Lon: -69.533
Time Zone: US/Eastern Elev: 1030 ft

Show me the last for .
Show Decoded

2018-04-24 04:16 METAR K40B 240816Z AUTO 00000KT M05/M06 A3023 RMK AO1 SLP255 T10471063 58005 =
2018-04-24 03:16 METAR K40B 240716Z AUTO 00000KT M04/M06 A3024 RMK AO1 SLP256 T10441057 57006 =
2018-04-24 02:16 METAR K40B 240616Z AUTO 00000KT M03/M05 A3025 RMK AO1 SLP257 T10341054 10032
                 21034 57004 60000 =
2018-04-24 01:16 METAR K40B 240516Z AUTO 00000KT M03/M06 A3025 RMK AO1 SLP253 T10291055 401541080
                 57011 =
2018-04-24 00:16 METAR K40B 240416Z AUTO 00000KT M02/M05 A3026 RMK AO1 SLP257 T10231048 57007
                 P0000 =
2018-04-23 23:16 METAR K40B 240316Z AUTO 00000KT M01/M06 A3026 RMK AO1 SLP255 T10151061 58005 =
2018-04-23 22:16 METAR K40B 240216Z AUTO 00000KT M01/M05 A3028 RMK AO1 SLP260 T10081054 52002 =
2018-04-23 21:16 METAR K40B 240116Z AUTO 00000KT 01/M07 A3028 RMK AO1 SLP260 T00081065 55001 =
2018-04-23 20:16 METAR K40B 240016Z AUTO 00000KT 03/M07 A3028 RMK AO1 SLP258 T00311071 10154
                 20030 55004 60000 =
2018-04-23 19:16 METAR K40B 232316Z AUTO 00000KT 07/M11 A3027 RMK AO1 SLP257 T00701107 57009
                 P0000 =
2018-04-23 18:16 METAR K40B 232216Z AUTO VRB06G12KT 12/M13 A3028 RMK AO1 SLP261 T01181128 57011 =
2018-04-23 17:16 METAR K40B 232116Z AUTO VRB04G10KT 14/M14 A3029 RMK AO1 SLP266 T01361143 57015 =
2018-04-23 16:55 METAR K40B 232055Z AUTO VRB04G14KT 15/M14 A3030 RMK AO1 SLP274 T01471140 57016 =
2018-04-23 15:18 METAR K40B 231918Z AUTO VRB05G13KT 15/M15 A3031 RMK AO1 SLP281 T01461147 57019 =
2018-04-23 14:16 METAR K40B 231816Z AUTO 21007G13KT 170V250 14/M15 A3033 RMK AO1 SLP289 T01361147
                 10144 20028 57020 =
2018-04-23 13:16 METAR K40B 231716Z AUTO 21006G12KT 180V250 13/M13 A3035 RMK AO1 SLP299 T01261133
                 57017 =
2018-04-23 12:16 METAR K40B 231616Z AUTO 20006G12KT 12/M14 A3037 RMK AO1 SLP307 T01211136 58011 =
2018-04-23 11:16 METAR K40B 231516Z AUTO VRB03G12KT 12/M11 A3039 RMK AO1 SLP316 T01171108 58008 =
2018-04-23 10:16 METAR K40B 231416Z AUTO VRB06G12KT 09/M12 A3041 RMK AO1 SLP324 T00941123 50001 =
2018-04-23 09:16 METAR K40B 231316Z AUTO VRB03KT 07/M10 A3041 RMK AO1 SLP325 T00731096 50007 =
2018-04-23 08:16 METAR K40B 231216Z AUTO 00000KT 03/M06 A3042 RMK AO1 SLP328 T00291056 10027
                 21080 51018 60000 70001 =
2018-04-23 07:23 METAR K40B 231123Z AUTO 00000KT M03/M07 A3041 RMK AO1 SLP325 T10341071 53015 =
2018-04-23 06:16 METAR K40B 231016Z AUTO 00000KT M08/M09 A3039 RMK AO1 SLP316 T10791092 53011 =
2018-04-23 05:16 METAR K40B 230916Z AUTO 00000KT M08/M09 A3036 RMK AO1 SLP305 T10791091 52006
                 60000 =

Support USWX by starting your Amazon purchase here.